Time,TemperatureF,DewpointF,PressureIn,WindDirection,WindDirectionDegrees,WindSpeedMPH,WindSpeedGustMPH,Humidity,HourlyPrecipIn,Conditions,Clouds,dailyrainin,SoftwareType,DateUTC
2015-07-01 00:03:00,73.0,47.0,-100.00,NW,325,1.0,4.0,40,-99.99,,,-99.99,,2015-07-01 06:03:00,
2015-07-01 00:13:00,73.0,46.0,-100.00,WSW,255,1.0,3.0,38,-99.99,,,-99.99,,2015-07-01 06:13:00,
2015-07-01 00:23:00,73.0,46.0,-100.00,WSW,255,1.0,3.0,38,-99.99,,,-99.99,,2015-07-01 06:23:00,
2015-07-01 00:33:00,73.0,46.0,-100.00,NNE,15,1.0,3.0,38,-99.99,,,-99.99,,2015-07-01 06:33:00,
2015-07-01 00:44:00,73.0,46.0,-100.00,NNE,15,1.0,3.0,38,-99.99,,,-99.99,,2015-07-01 06:44:00,
2015-07-01 00:53:00,72.0,46.0,-100.00,North,355,3.0,3.0,40,-99.99,,,-99.99,,2015-07-01 06:53:00,
2015-07-01 01:03:00,72.0,46.0,-100.00,North,355,3.0,3.0,40,-99.99,,,-99.99,,2015-07-01 07:03:00,
2015-07-01 01:12:00,71.0,45.0,-100.00,North,355,9.0,11.0,39,-99.99,,,-99.99,,2015-07-01 07:12:00,
2015-07-01 01:23:00,71.0,45.0,-100.00,North,355,9.0,11.0,39,-99.99,,,-99.99,,2015-07-01 07:23:00,
2015-07-01 01:33:00,70.0,46.0,-100.00,North,355,6.0,8.0,43,-99.99,,,-99.99,,2015-07-01 07:33:00,
2015-07-01 01:43:00,70.0,46.0,-100.00,North,355,6.0,8.0,43,-99.99,,,-99.99,,2015-07-01 07:43:00,
2015-07-01 01:53:00,71.0,45.0,-100.00,North,355,6.0,7.0,39,-99.99,,,-99.99,,2015-07-01 07:53:00,
2015-07-01 02:03:00,71.0,45.0,-100.00,North,355,6.0,7.0,39,-99.99,,,-99.99,,2015-07-01 08:03:00,
2015-07-01 02:13:00,70.0,45.0,-100.00,North,0,3.0,5.0,41,-99.99,,,-99.99,,2015-07-01 08:13:00,
2015-07-01 02:23:00,70.0,45.0,-100.00,North,0,3.0,5.0,41,-99.99,,,-99.99,,2015-07-01 08:23:00,
2015-07-01 02:33:00,69.0,45.0,-100.00,NW,325,3.0,4.0,42,-99.99,,,-99.99,,2015-07-01 08:33:00,
2015-07-01 02:43:00,69.0,45.0,-100.00,NW,325,3.0,4.0,42,-99.99,,,-99.99,,2015-07-01 08:43:00,
2015-07-01 02:53:00,68.0,45.0,-100.00,NNW,335,1.0,3.0,43,-99.99,,,-99.99,,2015-07-01 08:53:00,
2015-07-01 03:03:00,68.0,45.0,-100.00,NNW,335,1.0,3.0,43,-99.99,,,-99.99,,2015-07-01 09:03:00,
2015-07-01 03:12:00,69.0,45.0,-100.00,West,270,2.0,3.0,42,-99.99,,,-99.99,,2015-07-01 09:12:00,
2015-07-01 03:23:00,69.0,45.0,-100.00,West,270,2.0,3.0,42,-99.99,,,-99.99,,2015-07-01 09:23:00,
2015-07-01 03:33:00,69.0,44.0,-100.00,West,265,2.0,2.0,41,-99.99,,,-99.99,,2015-07-01 09:33:00,
2015-07-01 03:43:00,69.0,44.0,-100.00,West,265,2.0,2.0,41,-99.99,,,-99.99,,2015-07-01 09:43:00,
2015-07-01 03:53:00,69.0,44.0,-100.00,North,-9999,0.0,2.0,41,-99.99,,,-99.99,,2015-07-01 09:53:00,
2015-07-01 04:03:00,69.0,44.0,-100.00,North,-9999,0.0,2.0,41,-99.99,,,-99.99,,2015-07-01 10:03:00,
2015-07-01 04:13:00,69.0,45.0,-100.00,NW,315,1.0,2.0,42,-99.99,,,-99.99,,2015-07-01 10:13:00,
2015-07-01 04:23:00,69.0,45.0,-100.00,NW,315,1.0,2.0,42,-99.99,,,-99.99,,2015-07-01 10:23:00,
2015-07-01 04:33:00,68.0,45.0,-100.00,West,265,1.0,2.0,43,-99.99,,,-99.99,,2015-07-01 10:33:00,
2015-07-01 04:43:00,68.0,45.0,-100.00,West,265,1.0,2.0,43,-99.99,,,-99.99,,2015-07-01 10:43:00,
2015-07-01 04:53:00,68.0,45.0,-100.00,North,355,3.0,3.0,44,-99.99,,,-99.99,,2015-07-01 10:53:00,
2015-07-01 05:03:00,68.0,45.0,-100.00,North,355,3.0,3.0,44,-99.99,,,-99.99,,2015-07-01 11:03:00,
2015-07-01 05:13:00,68.0,44.0,-100.00,North,355,3.0,4.0,43,-99.99,,,-99.99,,2015-07-01 11:13:00,
2015-07-01 05:23:00,68.0,44.0,-100.00,North,355,3.0,4.0,43,-99.99,,,-99.99,,2015-07-01 11:23:00,
2015-07-01 05:33:00,68.0,45.0,-100.00,NNW,345,3.0,4.0,44,-99.99,,,-99.99,,2015-07-01 11:33:00,
2015-07-01 05:43:00,68.0,45.0,-100.00,NNW,345,3.0,4.0,44,-99.99,,,-99.99,,2015-07-01 11:43:00,
2015-07-01 05:53:00,68.0,44.0,-100.00,North,350,3.0,4.0,42,-99.99,,,-99.99,,2015-07-01 11:53:00,
2015-07-01 06:03:00,68.0,44.0,-100.00,North,350,3.0,4.0,42,-99.99,,,-99.99,,2015-07-01 12:03:00,
2015-07-01 06:13:00,68.0,45.0,-100.00,North,350,3.0,3.0,44,-99.99,,,-99.99,,2015-07-01 12:13:00,
2015-07-01 06:23:00,68.0,45.0,-100.00,North,350,3.0,3.0,44,-99.99,,,-99.99,,2015-07-01 12:23:00,
2015-07-01 06:33:00,67.0,46.0,-100.00,North,0,4.0,6.0,46,-99.99,,,-99.99,,2015-07-01 12:33:00,
2015-07-01 06:43:00,67.0,46.0,-100.00,North,0,4.0,6.0,46,-99.99,,,-99.99,,2015-07-01 12:43:00,
2015-07-01 06:53:00,68.0,46.0,-100.00,North,0,4.0,6.0,46,-99.99,,,-99.99,,2015-07-01 12:53:00,
2015-07-01 07:03:00,68.0,46.0,-100.00,North,0,4.0,6.0,46,-99.99,,,-99.99,,2015-07-01 13:03:00,
2015-07-01 07:23:00,69.0,46.0,-100.00,North,0,3.0,4.0,45,-99.99,,,-99.99,,2015-07-01 13:23:00,
2015-07-01 07:33:00,69.0,46.0,-100.00,North,5,4.0,4.0,44,-99.99,,,-99.99,,2015-07-01 13:33:00,
2015-07-01 07:43:00,69.0,46.0,-100.00,North,5,4.0,4.0,44,-99.99,,,-99.99,,2015-07-01 13:43:00,
2015-07-01 07:53:00,70.0,47.0,-100.00,North,0,3.0,5.0,45,-99.99,,,-99.99,,2015-07-01 13:53:00,
2015-07-01 08:03:00,70.0,47.0,-100.00,North,0,3.0,5.0,45,-99.99,,,-99.99,,2015-07-01 14:03:00,
2015-07-01 08:12:00,71.0,50.0,-100.00,North,10,1.0,3.0,46,-99.99,,,-99.99,,2015-07-01 14:12:00,
2015-07-01 08:23:00,71.0,50.0,-100.00,North,10,1.0,3.0,46,-99.99,,,-99.99,,2015-07-01 14:23:00,
2015-07-01 08:33:00,72.0,49.0,-100.00,NNE,15,3.0,4.0,45,-99.99,,,-99.99,,2015-07-01 14:33:00,
2015-07-01 08:43:00,72.0,49.0,-100.00,NNE,15,3.0,4.0,45,-99.99,,,-99.99,,2015-07-01 14:43:00,
2015-07-01 08:53:00,72.0,51.0,-100.00,North,0,2.0,4.0,47,-99.99,,,-99.99,,2015-07-01 14:53:00,
2015-07-01 09:03:00,72.0,51.0,-100.00,North,0,2.0,4.0,47,-99.99,,,-99.99,,2015-07-01 15:03:00,
2015-07-01 09:12:00,74.0,51.0,-100.00,North,5,3.0,4.0,44,-99.99,,,-99.99,,2015-07-01 15:12:00,
2015-07-01 09:33:00,75.0,53.0,-100.00,North,5,1.0,3.0,46,-99.99,,,-99.99,,2015-07-01 15:33:00,
2015-07-01 09:43:00,75.0,53.0,-100.00,North,5,1.0,3.0,46,-99.99,,,-99.99,,2015-07-01 15:43:00,
2015-07-01 09:53:00,76.0,49.0,-100.00,NE,55,2.0,3.0,39,-99.99,,,-99.99,,2015-07-01 15:53:00,
2015-07-01 10:03:00,76.0,49.0,-100.00,NE,55,2.0,3.0,39,-99.99,,,-99.99,,2015-07-01 16:03:00,
2015-07-01 10:12:00,77.0,53.0,-100.00,NNE,15,3.0,4.0,43,-99.99,,,-99.99,,2015-07-01 16:12:00,
2015-07-01 10:23:00,77.0,53.0,-100.00,NNE,15,3.0,4.0,43,-99.99,,,-99.99,,2015-07-01 16:23:00,
2015-07-01 10:33:00,77.0,46.0,-100.00,North,5,4.0,6.0,33,-99.99,,,-99.99,,2015-07-01 16:33:00,
2015-07-01 10:43:00,77.0,46.0,-100.00,North,5,4.0,6.0,33,-99.99,,,-99.99,,2015-07-01 16:43:00,
2015-07-01 10:53:00,79.0,48.0,-100.00,South,175,2.0,5.0,34,-99.99,,,-99.99,,2015-07-01 16:53:00,
2015-07-01 11:03:00,79.0,48.0,-100.00,South,175,2.0,5.0,34,-99.99,,,-99.99,,2015-07-01 17:03:00,
2015-07-01 11:13:00,79.0,50.0,-100.00,North,10,3.0,8.0,37,-99.99,,,-99.99,,2015-07-01 17:13:00,
2015-07-01 11:23:00,79.0,50.0,-100.00,North,10,3.0,8.0,37,-99.99,,,-99.99,,2015-07-01 17:23:00,
2015-07-01 11:33:00,79.0,49.0,-100.00,NNE,20,6.0,9.0,35,-99.99,,,-99.99,,2015-07-01 17:33:00,
2015-07-01 11:44:00,79.0,49.0,-100.00,NNE,20,6.0,9.0,35,-99.99,,,-99.99,,2015-07-01 17:44:00,
2015-07-01 12:03:00,79.0,50.0,-100.00,North,0,8.0,11.0,36,-99.99,,,-99.99,,2015-07-01 18:03:00,
2015-07-01 12:13:00,81.0,47.0,-100.00,NE,50,1.0,6.0,31,-99.99,,,-99.99,,2015-07-01 18:13:00,
2015-07-01 12:34:00,80.0,50.0,-100.00,SSE,160,4.0,7.0,36,-99.99,,,-99.99,,2015-07-01 18:34:00,
2015-07-01 12:44:00,80.0,50.0,-100.00,SSE,160,4.0,7.0,36,-99.99,,,-99.99,,2015-07-01 18:44:00,
2015-07-01 12:53:00,80.0,49.0,-100.00,SSE,165,3.0,6.0,34,-99.99,,,-99.99,,2015-07-01 18:53:00,
2015-07-01 13:03:00,80.0,49.0,-100.00,SSE,165,3.0,6.0,34,-99.99,,,-99.99,,2015-07-01 19:03:00,
2015-07-01 13:13:00,81.0,50.0,-100.00,North,0,1.0,7.0,35,-99.99,,,-99.99,,2015-07-01 19:13:00,
2015-07-01 13:23:00,81.0,50.0,-100.00,North,0,1.0,7.0,35,-99.99,,,-99.99,,2015-07-01 19:23:00,
2015-07-01 13:34:00,81.0,50.0,-100.00,NNE,15,7.0,9.0,34,-99.99,,,-99.99,,2015-07-01 19:34:00,
2015-07-01 13:44:00,81.0,50.0,-100.00,NNE,15,7.0,9.0,34,-99.99,,,-99.99,,2015-07-01 19:44:00,
2015-07-01 13:53:00,82.0,49.0,-100.00,NNW,330,2.0,6.0,32,-99.99,,,-99.99,,2015-07-01 19:53:00,
2015-07-01 14:03:00,82.0,49.0,-100.00,NNW,330,2.0,6.0,32,-99.99,,,-99.99,,2015-07-01 20:03:00,
2015-07-01 14:13:00,82.0,50.0,-100.00,NNE,30,2.0,9.0,33,-99.99,,,-99.99,,2015-07-01 20:13:00,
2015-07-01 14:23:00,82.0,50.0,-100.00,NNE,30,2.0,9.0,33,-99.99,,,-99.99,,2015-07-01 20:23:00,
2015-07-01 14:33:00,82.0,49.0,-100.00,WNW,295,4.0,9.0,32,-99.99,,,-99.99,,2015-07-01 20:33:00,
2015-07-01 14:43:00,82.0,49.0,-100.00,WNW,295,4.0,9.0,32,-99.99,,,-99.99,,2015-07-01 20:43:00,
2015-07-01 14:53:00,82.0,50.0,-100.00,NNE,20,6.0,9.0,33,-99.99,,,-99.99,,2015-07-01 20:53:00,
2015-07-01 15:03:00,82.0,50.0,-100.00,NNE,20,6.0,9.0,33,-99.99,,,-99.99,,2015-07-01 21:03:00,
2015-07-01 15:12:00,84.0,50.0,-100.00,ESE,105,6.0,10.0,31,-99.99,,,-99.99,,2015-07-01 21:12:00,
2015-07-01 15:23:00,84.0,50.0,-100.00,ESE,105,6.0,10.0,31,-99.99,,,-99.99,,2015-07-01 21:23:00,
2015-07-01 15:33:00,84.0,48.0,-100.00,East,90,6.0,9.0,29,-99.99,,,-99.99,,2015-07-01 21:33:00,
2015-07-01 15:43:00,84.0,48.0,-100.00,East,90,6.0,9.0,29,-99.99,,,-99.99,,2015-07-01 21:43:00,